sensor_id;sensor_type;location;lat;lon;timestamp;temperature;humidity
78793;SHT31;68134;51.984;5.652;2023-03-01T00:02:10;2.4;51.3
78793;SHT31;68134;51.984;5.652;2023-03-01T00:04:39;2.3;51.2
78793;SHT31;68134;51.984;5.652;2023-03-01T00:07:09;2.3;51.0
78793;SHT31;68134;51.984;5.652;2023-03-01T00:09:39;2.2;51.5
78793;SHT31;68134;51.984;5.652;2023-03-01T00:12:08;2.2;51.7
78793;SHT31;68134;51.984;5.652;2023-03-01T00:14:39;2.2;52.0
78793;SHT31;68134;51.984;5.652;2023-03-01T00:17:08;2.1;52.0
78793;SHT31;68134;51.984;5.652;2023-03-01T00:19:38;2.1;52.0
78793;SHT31;68134;51.984;5.652;2023-03-01T00:22:08;2.1;52.1
78793;SHT31;68134;51.984;5.652;2023-03-01T00:24:39;2.0;52.5
78793;SHT31;68134;51.984;5.652;2023-03-01T00:27:09;2.0;52.5
78793;SHT31;68134;51.984;5.652;2023-03-01T00:29:39;2.0;52.4
78793;SHT31;68134;51.984;5.652;2023-03-01T00:32:08;1.9;52.9
78793;SHT31;68134;51.984;5.652;2023-03-01T00:34:38;1.9;53.2
78793;SHT31;68134;51.984;5.652;2023-03-01T00:37:08;1.9;53.1
78793;SHT31;68134;51.984;5.652;2023-03-01T00:39:38;1.9;53.2
78793;SHT31;68134;51.984;5.652;2023-03-01T00:42:07;1.8;53.2
78793;SHT31;68134;51.984;5.652;2023-03-01T00:44:37;1.8;53.4
78793;SHT31;68134;51.984;5.652;2023-03-01T00:47:07;1.8;53.6
78793;SHT31;68134;51.984;5.652;2023-03-01T00:49:36;1.7;53.5
78793;SHT31;68134;51.984;5.652;2023-03-01T00:52:06;1.7;53.7
78793;SHT31;68134;51.984;5.652;2023-03-01T00:54:38;1.7;53.6
78793;SHT31;68134;51.984;5.652;2023-03-01T00:57:07;1.6;53.5
78793;SHT31;68134;51.984;5.652;2023-03-01T00:59:37;1.6;53.5
78793;SHT31;68134;51.984;5.652;2023-03-01T01:02:06;1.6;53.9
78793;SHT31;68134;51.984;5.652;2023-03-01T01:04:36;1.5;54.0
78793;SHT31;68134;51.984;5.652;2023-03-01T01:07:06;1.5;53.9
78793;SHT31;68134;51.984;5.652;2023-03-01T01:09:36;1.5;54.0
78793;SHT31;68134;51.984;5.652;2023-03-01T01:12:06;1.4;53.9
78793;SHT31;68134;51.984;5.652;2023-03-01T01:14:36;1.4;54.3
78793;SHT31;68134;51.984;5.652;2023-03-01T01:17:05;1.4;54.2
78793;SHT31;68134;51.984;5.652;2023-03-01T01:19:35;1.3;54.3
78793;SHT31;68134;51.984;5.652;2023-03-01T01:22:05;1.3;54.2
78793;SHT31;68134;51.984;5.652;2023-03-01T01:24:35;1.3;54.4
78793;SHT31;68134;51.984;5.652;2023-03-01T01:27:04;1.3;54.5
78793;SHT31;68134;51.984;5.652;2023-03-01T01:29:34;1.2;54.6
78793;SHT31;68134;51.984;5.652;2023-03-01T01:32:05;1.2;54.6
78793;SHT31;68134;51.984;5.652;2023-03-01T01:34:34;1.2;54.7
78793;SHT31;68134;51.984;5.652;2023-03-01T01:37:04;1.1;54.8
78793;SHT31;68134;51.984;5.652;2023-03-01T01:39:35;1.1;55.3
78793;SHT31;68134;51.984;5.652;2023-03-01T01:42:08;1.1;55.0
78793;SHT31;68134;51.984;5.652;2023-03-01T01:44:40;1.1;55.4
78793;SHT31;68134;51.984;5.652;2023-03-01T01:47:13;1.0;55.2
78793;SHT31;68134;51.984;5.652;2023-03-01T01:49:47;1.0;55.3
78793;SHT31;68134;51.984;5.652;2023-03-01T01:52:22;1.0;55.2
78793;SHT31;68134;51.984;5.652;2023-03-01T01:54:57;1.0;55.3
78793;SHT31;68134;51.984;5.652;2023-03-01T01:57:31;1.0;55.3
78793;SHT31;68134;51.984;5.652;2023-03-01T02:00:05;0.9;55.3
78793;SHT31;68134;51.984;5.652;2023-03-01T02:02:36;0.9;55.4
78793;SHT31;68134;51.984;5.652;2023-03-01T02:05:12;0.9;55.8
78793;SHT31;68134;51.984;5.652;2023-03-01T02:07:46;0.9;55.5
78793;SHT31;68134;51.984;5.652;2023-03-01T02:10:17;0.9;55.5
78793;SHT31;68134;51.984;5.652;2023-03-01T02:12:47;0.8;55.8
78793;SHT31;68134;51.984;5.652;2023-03-01T02:15:17;0.8;55.4
78793;SHT31;68134;51.984;5.652;2023-03-01T02:17:46;0.8;55.8
78793;SHT31;68134;51.984;5.652;2023-03-01T02:20:27;0.8;55.8
78793;SHT31;68134;51.984;5.652;2023-03-01T02:22:58;0.7;55.9
78793;SHT31;68134;51.984;5.652;2023-03-01T02:25:41;0.7;56.0
78793;SHT31;68134;51.984;5.652;2023-03-01T02:28:29;0.7;56.0
78793;SHT31;68134;51.984;5.652;2023-03-01T02:31:02;0.7;56.0
78793;SHT31;68134;51.984;5.652;2023-03-01T02:33:49;0.6;55.8
78793;SHT31;68134;51.984;5.652;2023-03-01T02:36:23;0.6;56.1
78793;SHT31;68134;51.984;5.652;2023-03-01T02:39:02;0.6;56.0
78793;SHT31;68134;51.984;5.652;2023-03-01T02:41:36;0.6;56.3
78793;SHT31;68134;51.984;5.652;2023-03-01T02:44:06;0.5;56.2
78793;SHT31;68134;51.984;5.652;2023-03-01T02:46:44;0.5;56.0
78793;SHT31;68134;51.984;5.652;2023-03-01T02:49:22;0.5;56.5
78793;SHT31;68134;51.984;5.652;2023-03-01T02:52:09;0.5;56.5
78793;SHT31;68134;51.984;5.652;2023-03-01T02:54:46;0.4;56.2
78793;SHT31;68134;51.984;5.652;2023-03-01T02:57:18;0.4;56.2
78793;SHT31;68134;51.984;5.652;2023-03-01T02:59:51;0.4;56.4
78793;SHT31;68134;51.984;5.652;2023-03-01T03:02:24;0.4;57.1
78793;SHT31;68134;51.984;5.652;2023-03-01T03:04:59;0.3;57.4
78793;SHT31;68134;51.984;5.652;2023-03-01T03:07:29;0.3;57.7
78793;SHT31;68134;51.984;5.652;2023-03-01T03:09:59;0.3;57.6
78793;SHT31;68134;51.984;5.652;2023-03-01T03:12:29;0.3;57.7
78793;SHT31;68134;51.984;5.652;2023-03-01T03:14:58;0.3;57.5
78793;SHT31;68134;51.984;5.652;2023-03-01T03:17:28;0.3;57.9
78793;SHT31;68134;51.984;5.652;2023-03-01T03:19:58;0.3;58.6
78793;SHT31;68134;51.984;5.652;2023-03-01T03:22:27;0.3;58.2
78793;SHT31;68134;51.984;5.652;2023-03-01T03:24:59;0.3;57.8
78793;SHT31;68134;51.984;5.652;2023-03-01T03:27:29;0.2;57.7
78793;SHT31;68134;51.984;5.652;2023-03-01T03:29:59;0.2;57.5
78793;SHT31;68134;51.984;5.652;2023-03-01T03:32:30;0.2;57.9
78793;SHT31;68134;51.984;5.652;2023-03-01T03:34:59;0.2;57.9
78793;SHT31;68134;51.984;5.652;2023-03-01T03:37:29;0.2;58.7
78793;SHT31;68134;51.984;5.652;2023-03-01T03:40:15;0.2;58.3
78793;SHT31;68134;51.984;5.652;2023-03-01T03:42:45;0.2;58.4
78793;SHT31;68134;51.984;5.652;2023-03-01T03:45:16;0.2;58.7
78793;SHT31;68134;51.984;5.652;2023-03-01T03:47:45;0.2;57.8
78793;SHT31;68134;51.984;5.652;2023-03-01T03:50:16;0.2;58.6
78793;SHT31;68134;51.984;5.652;2023-03-01T03:52:48;0.2;58.7
78793;SHT31;68134;51.984;5.652;2023-03-01T03:55:20;0.2;58.5
78793;SHT31;68134;51.984;5.652;2023-03-01T03:57:50;0.2;58.2
78793;SHT31;68134;51.984;5.652;2023-03-01T04:00:22;0.2;58.4
78793;SHT31;68134;51.984;5.652;2023-03-01T04:02:51;0.1;58.0
78793;SHT31;68134;51.984;5.652;2023-03-01T04:05:23;0.1;57.7
78793;SHT31;68134;51.984;5.652;2023-03-01T04:07:54;0.1;58.0
78793;SHT31;68134;51.984;5.652;2023-03-01T04:10:32;0.1;57.5
78793;SHT31;68134;51.984;5.652;2023-03-01T04:13:02;0.1;57.5
78793;SHT31;68134;51.984;5.652;2023-03-01T04:15:33;0.1;57.6
78793;SHT31;68134;51.984;5.652;2023-03-01T04:18:04;0.1;58.1
78793;SHT31;68134;51.984;5.652;2023-03-01T04:20:35;0.1;58.2
78793;SHT31;68134;51.984;5.652;2023-03-01T04:23:08;0.1;58.5
78793;SHT31;68134;51.984;5.652;2023-03-01T04:25:46;0.1;58.4
78793;SHT31;68134;51.984;5.652;2023-03-01T04:28:22;0.1;59.1
78793;SHT31;68134;51.984;5.652;2023-03-01T04:30:56;0.1;58.7
78793;SHT31;68134;51.984;5.652;2023-03-01T04:33:26;0.2;58.4
78793;SHT31;68134;51.984;5.652;2023-03-01T04:35:55;0.2;58.9
78793;SHT31;68134;51.984;5.652;2023-03-01T04:38:25;0.2;58.6
78793;SHT31;68134;51.984;5.652;2023-03-01T04:40:54;0.2;58.0
78793;SHT31;68134;51.984;5.652;2023-03-01T04:43:24;0.2;58.5
78793;SHT31;68134;51.984;5.652;2023-03-01T04:45:53;0.3;58.0
78793;SHT31;68134;51.984;5.652;2023-03-01T04:48:23;0.3;57.6
78793;SHT31;68134;51.984;5.652;2023-03-01T04:50:53;0.3;57.7
78793;SHT31;68134;51.984;5.652;2023-03-01T04:53:22;0.3;57.4
78793;SHT31;68134;51.984;5.652;2023-03-01T04:55:53;0.3;58.0
78793;SHT31;68134;51.984;5.652;2023-03-01T04:58:25;0.3;58.0
78793;SHT31;68134;51.984;5.652;2023-03-01T05:00:56;0.3;58.3
78793;SHT31;68134;51.984;5.652;2023-03-01T05:03:25;0.4;57.6
78793;SHT31;68134;51.984;5.652;2023-03-01T05:05:58;0.4;57.9
78793;SHT31;68134;51.984;5.652;2023-03-01T05:08:30;0.4;57.8
78793;SHT31;68134;51.984;5.652;2023-03-01T05:11:03;0.4;57.2
78793;SHT31;68134;51.984;5.652;2023-03-01T05:13:37;0.4;57.6
78793;SHT31;68134;51.984;5.652;2023-03-01T05:16:10;0.4;56.6
78793;SHT31;68134;51.984;5.652;2023-03-01T05:18:40;0.4;56.7
78793;SHT31;68134;51.984;5.652;2023-03-01T05:21:13;0.4;56.6
78793;SHT31;68134;51.984;5.652;2023-03-01T05:23:45;0.4;56.8
78793;SHT31;68134;51.984;5.652;2023-03-01T05:26:16;0.4;56.6
78793;SHT31;68134;51.984;5.652;2023-03-01T05:28:47;0.4;56.8
78793;SHT31;68134;51.984;5.652;2023-03-01T05:31:17;0.4;56.8
78793;SHT31;68134;51.984;5.652;2023-03-01T05:33:46;0.3;56.7
78793;SHT31;68134;51.984;5.652;2023-03-01T05:36:16;0.3;56.9
78793;SHT31;68134;51.984;5.652;2023-03-01T05:38:46;0.3;56.8
78793;SHT31;68134;51.984;5.652;2023-03-01T05:41:16;0.3;56.9
78793;SHT31;68134;51.984;5.652;2023-03-01T05:43:46;0.3;56.9
78793;SHT31;68134;51.984;5.652;2023-03-01T05:46:17;0.3;56.7
78793;SHT31;68134;51.984;5.652;2023-03-01T05:48:47;0.3;57.0
78793;SHT31;68134;51.984;5.652;2023-03-01T05:51:16;0.3;56.9
78793;SHT31;68134;51.984;5.652;2023-03-01T05:53:46;0.3;56.8
78793;SHT31;68134;51.984;5.652;2023-03-01T05:56:18;0.3;56.8
78793;SHT31;68134;51.984;5.652;2023-03-01T05:58:49;0.2;56.6
78793;SHT31;68134;51.984;5.652;2023-03-01T06:01:21;0.2;56.4
78793;SHT31;68134;51.984;5.652;2023-03-01T06:03:50;0.2;56.5
78793;SHT31;68134;51.984;5.652;2023-03-01T06:06:20;0.2;56.4
78793;SHT31;68134;51.984;5.652;2023-03-01T06:08:50;0.2;56.3
78793;SHT31;68134;51.984;5.652;2023-03-01T06:11:20;0.2;56.4
78793;SHT31;68134;51.984;5.652;2023-03-01T06:13:49;0.2;56.7
78793;SHT31;68134;51.984;5.652;2023-03-01T06:16:19;0.2;56.9
78793;SHT31;68134;51.984;5.652;2023-03-01T06:18:51;0.1;57.0
78793;SHT31;68134;51.984;5.652;2023-03-01T06:21:20;0.1;56.4
78793;SHT31;68134;51.984;5.652;2023-03-01T06:23:50;0.1;56.8
78793;SHT31;68134;51.984;5.652;2023-03-01T06:26:20;0.1;57.0
78793;SHT31;68134;51.984;5.652;2023-03-01T06:28:51;0.1;56.9
78793;SHT31;68134;51.984;5.652;2023-03-01T06:31:21;0.1;56.9
78793;SHT31;68134;51.984;5.652;2023-03-01T06:33:51;0.1;56.8
78793;SHT31;68134;51.984;5.652;2023-03-01T06:36:20;0.1;57.0
78793;SHT31;68134;51.984;5.652;2023-03-01T06:38:50;0.1;57.2
78793;SHT31;68134;51.984;5.652;2023-03-01T06:41:19;0.1;57.3
78793;SHT31;68134;51.984;5.652;2023-03-01T06:43:49;0.1;57.5
78793;SHT31;68134;51.984;5.652;2023-03-01T06:46:18;0.1;57.6
78793;SHT31;68134;51.984;5.652;2023-03-01T06:48:48;0.1;57.6
78793;SHT31;68134;51.984;5.652;2023-03-01T06:51:18;0.1;57.7
78793;SHT31;68134;51.984;5.652;2023-03-01T06:53:48;0.1;57.5
78793;SHT31;68134;51.984;5.652;2023-03-01T06:56:17;0.1;57.6
78793;SHT31;68134;51.984;5.652;2023-03-01T06:58:47;0.1;57.9
78793;SHT31;68134;51.984;5.652;2023-03-01T07:01:16;0.1;57.8
78793;SHT31;68134;51.984;5.652;2023-03-01T07:03:46;0.1;57.7
78793;SHT31;68134;51.984;5.652;2023-03-01T07:06:15;0.1;57.4
78793;SHT31;68134;51.984;5.652;2023-03-01T07:08:45;0.1;58.0
78793;SHT31;68134;51.984;5.652;2023-03-01T07:11:15;0.2;58.7
78793;SHT31;68134;51.984;5.652;2023-03-01T07:13:45;0.2;58.4
78793;SHT31;68134;51.984;5.652;2023-03-01T07:16:15;0.2;58.2
78793;SHT31;68134;51.984;5.652;2023-03-01T07:18:45;0.2;58.3
78793;SHT31;68134;51.984;5.652;2023-03-01T07:21:15;0.2;58.1
78793;SHT31;68134;51.984;5.652;2023-03-01T07:23:47;0.2;58.8
78793;SHT31;68134;51.984;5.652;2023-03-01T07:26:17;0.3;58.8
78793;SHT31;68134;51.984;5.652;2023-03-01T07:28:47;0.3;59.5
78793;SHT31;68134;51.984;5.652;2023-03-01T07:31:17;0.3;59.4
78793;SHT31;68134;51.984;5.652;2023-03-01T07:33:46;0.4;59.5
78793;SHT31;68134;51.984;5.652;2023-03-01T07:36:18;0.4;60.5
78793;SHT31;68134;51.984;5.652;2023-03-01T07:38:47;0.5;61.0
78793;SHT31;68134;51.984;5.652;2023-03-01T07:41:17;0.6;61.1
78793;SHT31;68134;51.984;5.652;2023-03-01T07:43:47;0.7;61.5
78793;SHT31;68134;51.984;5.652;2023-03-01T07:46:16;0.8;61.3
78793;SHT31;68134;51.984;5.652;2023-03-01T07:48:46;0.9;62.2
78793;SHT31;68134;51.984;5.652;2023-03-01T07:51:16;1.1;62.1
78793;SHT31;68134;51.984;5.652;2023-03-01T07:53:47;1.4;61.9
78793;SHT31;68134;51.984;5.652;2023-03-01T07:56:18;1.6;61.8
78793;SHT31;68134;51.984;5.652;2023-03-01T07:58:49;1.9;61.5
78793;SHT31;68134;51.984;5.652;2023-03-01T08:01:20;2.2;61.1
78793;SHT31;68134;51.984;5.652;2023-03-01T08:03:51;2.6;60.5
78793;SHT31;68134;51.984;5.652;2023-03-01T08:06:23;3.0;60.3
78793;SHT31;68134;51.984;5.652;2023-03-01T08:08:52;3.6;58.6
78793;SHT31;68134;51.984;5.652;2023-03-01T08:11:23;4.2;57.3
78793;SHT31;68134;51.984;5.652;2023-03-01T08:13:52;4.8;55.7
78793;SHT31;68134;51.984;5.652;2023-03-01T08:16:22;5.4;51.7
78793;SHT31;68134;51.984;5.652;2023-03-01T08:18:54;6.0;49.4
78793;SHT31;68134;51.984;5.652;2023-03-01T08:21:28;6.4;47.2
78793;SHT31;68134;51.984;5.652;2023-03-01T08:23:59;6.8;47.0
78793;SHT31;68134;51.984;5.652;2023-03-01T08:26:29;7.1;46.1
78793;SHT31;68134;51.984;5.652;2023-03-01T08:29:00;7.4;44.8
78793;SHT31;68134;51.984;5.652;2023-03-01T08:31:31;7.8;43.8
78793;SHT31;68134;51.984;5.652;2023-03-01T08:34:05;8.1;44.8
78793;SHT31;68134;51.984;5.652;2023-03-01T08:36:38;8.4;43.1
78793;SHT31;68134;51.984;5.652;2023-03-01T08:39:10;8.8;41.1
78793;SHT31;68134;51.984;5.652;2023-03-01T08:41:40;9.1;40.1
78793;SHT31;68134;51.984;5.652;2023-03-01T08:44:12;9.4;39.2
78793;SHT31;68134;51.984;5.652;2023-03-01T08:46:44;9.6;38.5
78793;SHT31;68134;51.984;5.652;2023-03-01T08:49:16;9.9;37.7
78793;SHT31;68134;51.984;5.652;2023-03-01T08:51:47;10.0;38.2
78793;SHT31;68134;51.984;5.652;2023-03-01T08:54:19;10.2;37.4
78793;SHT31;68134;51.984;5.652;2023-03-01T08:56:49;10.4;36.8
78793;SHT31;68134;51.984;5.652;2023-03-01T08:59:19;10.6;37.0
78793;SHT31;68134;51.984;5.652;2023-03-01T09:01:51;10.8;36.1
78793;SHT31;68134;51.984;5.652;2023-03-01T09:04:20;11.0;35.8
78793;SHT31;68134;51.984;5.652;2023-03-01T09:06:52;11.2;36.0
78793;SHT31;68134;51.984;5.652;2023-03-01T09:09:21;11.5;35.2
78793;SHT31;68134;51.984;5.652;2023-03-01T09:11:51;11.7;34.5
78793;SHT31;68134;51.984;5.652;2023-03-01T09:14:21;12.0;33.8
78793;SHT31;68134;51.984;5.652;2023-03-01T09:16:50;12.2;33.5
78793;SHT31;68134;51.984;5.652;2023-03-01T09:19:20;12.4;33.1
78793;SHT31;68134;51.984;5.652;2023-03-01T09:21:49;12.6;32.9
78793;SHT31;68134;51.984;5.652;2023-03-01T09:24:23;12.9;32.2
78793;SHT31;68134;51.984;5.652;2023-03-01T09:26:56;13.1;31.5
78793;SHT31;68134;51.984;5.652;2023-03-01T09:29:25;13.3;31.7
78793;SHT31;68134;51.984;5.652;2023-03-01T09:31:57;13.5;31.2
78793;SHT31;68134;51.984;5.652;2023-03-01T09:34:30;13.7;32.0
78793;SHT31;68134;51.984;5.652;2023-03-01T09:37:05;14.0;30.0
78793;SHT31;68134;51.984;5.652;2023-03-01T09:39:35;14.1;29.3
78793;SHT31;68134;51.984;5.652;2023-03-01T09:42:05;14.3;29.0
78793;SHT31;68134;51.984;5.652;2023-03-01T09:44:40;14.4;29.3
78793;SHT31;68134;51.984;5.652;2023-03-01T09:47:18;14.6;28.6
78793;SHT31;68134;51.984;5.652;2023-03-01T09:49:58;14.7;29.3
78793;SHT31;68134;51.984;5.652;2023-03-01T09:52:34;15.0;28.1
78793;SHT31;68134;51.984;5.652;2023-03-01T09:55:11;15.3;27.6
78793;SHT31;68134;51.984;5.652;2023-03-01T09:57:47;15.5;27.2
78793;SHT31;68134;51.984;5.652;2023-03-01T10:00:33;15.7;26.1
78793;SHT31;68134;51.984;5.652;2023-03-01T10:03:12;15.8;26.2
78793;SHT31;68134;51.984;5.652;2023-03-01T10:05:59;16.0;25.7
78793;SHT31;68134;51.984;5.652;2023-03-01T10:08:34;16.1;25.5
78793;SHT31;68134;51.984;5.652;2023-03-01T10:11:20;16.3;24.8
78793;SHT31;68134;51.984;5.652;2023-03-01T10:13:55;16.5;24.2
78793;SHT31;68134;51.984;5.652;2023-03-01T10:16:37;16.6;23.9
78793;SHT31;68134;51.984;5.652;2023-03-01T10:19:13;16.7;24.4
78793;SHT31;68134;51.984;5.652;2023-03-01T10:21:45;16.9;23.9
78793;SHT31;68134;51.984;5.652;2023-03-01T10:24:18;17.1;23.3
78793;SHT31;68134;51.984;5.652;2023-03-01T10:27:03;17.2;23.0
78793;SHT31;68134;51.984;5.652;2023-03-01T10:29:40;17.4;22.9
78793;SHT31;68134;51.984;5.652;2023-03-01T10:32:14;17.7;22.8
78793;SHT31;68134;51.984;5.652;2023-03-01T10:34:45;17.9;22.0
78793;SHT31;68134;51.984;5.652;2023-03-01T10:37:16;18.0;21.8
78793;SHT31;68134;51.984;5.652;2023-03-01T10:40:03;18.2;21.2
78793;SHT31;68134;51.984;5.652;2023-03-01T10:42:38;18.4;21.6
78793;SHT31;68134;51.984;5.652;2023-03-01T10:45:32;18.6;21.1
78793;SHT31;68134;51.984;5.652;2023-03-01T10:48:14;18.7;20.9
78793;SHT31;68134;51.984;5.652;2023-03-01T10:50:48;18.9;21.6
78793;SHT31;68134;51.984;5.652;2023-03-01T10:53:24;19.0;20.8
78793;SHT31;68134;51.984;5.652;2023-03-01T10:56:05;19.2;21.5
78793;SHT31;68134;51.984;5.652;2023-03-01T10:58:37;19.5;20.7
78793;SHT31;68134;51.984;5.652;2023-03-01T11:01:26;19.8;20.8
78793;SHT31;68134;51.984;5.652;2023-03-01T11:04:11;20.1;19.8
78793;SHT31;68134;51.984;5.652;2023-03-01T11:06:41;20.3;20.0
78793;SHT31;68134;51.984;5.652;2023-03-01T11:09:19;20.4;19.8
78793;SHT31;68134;51.984;5.652;2023-03-01T11:11:54;20.5;20.0
78793;SHT31;68134;51.984;5.652;2023-03-01T11:14:26;20.7;19.8
78793;SHT31;68134;51.984;5.652;2023-03-01T11:17:02;20.8;19.7
78793;SHT31;68134;51.984;5.652;2023-03-01T11:19:32;20.9;19.4
78793;SHT31;68134;51.984;5.652;2023-03-01T11:22:07;20.9;19.3
78793;SHT31;68134;51.984;5.652;2023-03-01T11:24:46;20.9;19.0
78793;SHT31;68134;51.984;5.652;2023-03-01T11:27:21;21.0;19.2
78793;SHT31;68134;51.984;5.652;2023-03-01T11:29:58;21.0;19.0
78793;SHT31;68134;51.984;5.652;2023-03-01T11:32:38;21.1;19.5
78793;SHT31;68134;51.984;5.652;2023-03-01T11:35:16;21.2;18.8
78793;SHT31;68134;51.984;5.652;2023-03-01T11:38:02;21.4;18.7
78793;SHT31;68134;51.984;5.652;2023-03-01T11:40:37;21.5;17.7
78793;SHT31;68134;51.984;5.652;2023-03-01T11:43:16;21.6;17.7
78793;SHT31;68134;51.984;5.652;2023-03-01T11:46:02;21.7;17.6
78793;SHT31;68134;51.984;5.652;2023-03-01T11:48:51;21.8;17.8
78793;SHT31;68134;51.984;5.652;2023-03-01T11:51:37;21.9;17.8
78793;SHT31;68134;51.984;5.652;2023-03-01T11:54:14;21.9;17.6
78793;SHT31;68134;51.984;5.652;2023-03-01T11:56:52;22.0;18.0
78793;SHT31;68134;51.984;5.652;2023-03-01T11:59:53;22.1;18.1
78793;SHT31;68134;51.984;5.652;2023-03-01T12:02:46;22.2;17.9
78793;SHT31;68134;51.984;5.652;2023-03-01T12:05:28;22.3;18.0
78793;SHT31;68134;51.984;5.652;2023-03-01T12:08:09;22.3;17.7
78793;SHT31;68134;51.984;5.652;2023-03-01T12:10:52;22.3;18.6
78793;SHT31;68134;51.984;5.652;2023-03-01T12:13:40;22.4;18.4
78793;SHT31;68134;51.984;5.652;2023-03-01T12:16:25;22.4;18.2
78793;SHT31;68134;51.984;5.652;2023-03-01T12:19:10;22.5;18.3
78793;SHT31;68134;51.984;5.652;2023-03-01T12:22:03;22.5;17.8
78793;SHT31;68134;51.984;5.652;2023-03-01T12:24:52;22.6;17.7
78793;SHT31;68134;51.984;5.652;2023-03-01T12:27:40;22.7;17.9
78793;SHT31;68134;51.984;5.652;2023-03-01T12:30:24;22.7;17.7
78793;SHT31;68134;51.984;5.652;2023-03-01T12:33:03;22.7;18.0
78793;SHT31;68134;51.984;5.652;2023-03-01T12:36:27;22.7;17.8
78793;SHT31;68134;51.984;5.652;2023-03-01T12:39:13;22.8;17.5
78793;SHT31;68134;51.984;5.652;2023-03-01T12:41:47;22.9;17.3
78793;SHT31;68134;51.984;5.652;2023-03-01T12:44:33;22.9;17.6
78793;SHT31;68134;51.984;5.652;2023-03-01T12:47:22;22.9;17.9
78793;SHT31;68134;51.984;5.652;2023-03-01T12:49:55;22.9;17.5
78793;SHT31;68134;51.984;5.652;2023-03-01T12:52:37;22.9;17.5
78793;SHT31;68134;51.984;5.652;2023-03-01T12:55:20;23.0;17.4
78793;SHT31;68134;51.984;5.652;2023-03-01T12:58:05;23.0;17.8
78793;SHT31;68134;51.984;5.652;2023-03-01T13:00:50;23.0;17.0
78793;SHT31;68134;51.984;5.652;2023-03-01T13:03:29;23.0;17.1
78793;SHT31;68134;51.984;5.652;2023-03-01T13:06:11;22.9;16.9
78793;SHT31;68134;51.984;5.652;2023-03-01T13:08:52;22.9;17.0
78793;SHT31;68134;51.984;5.652;2023-03-01T13:11:24;22.9;17.3
78793;SHT31;68134;51.984;5.652;2023-03-01T13:14:34;22.8;17.1
78793;SHT31;68134;51.984;5.652;2023-03-01T13:17:03;22.8;17.4
78793;SHT31;68134;51.984;5.652;2023-03-01T13:19:34;22.9;17.7
78793;SHT31;68134;51.984;5.652;2023-03-01T13:22:29;22.8;16.8
78793;SHT31;68134;51.984;5.652;2023-03-01T13:25:13;22.8;17.2
78793;SHT31;68134;51.984;5.652;2023-03-01T13:27:44;22.9;17.5
78793;SHT31;68134;51.984;5.652;2023-03-01T13:30:46;22.9;17.7
78793;SHT31;68134;51.984;5.652;2023-03-01T13:33:37;23.0;17.1
78793;SHT31;68134;51.984;5.652;2023-03-01T13:36:10;23.0;17.1
78793;SHT31;68134;51.984;5.652;2023-03-01T13:38:46;23.0;17.2
78793;SHT31;68134;51.984;5.652;2023-03-01T13:41:47;23.1;17.2
78793;SHT31;68134;51.984;5.652;2023-03-01T13:43:53;23.1;16.9
78793;SHT31;68134;51.984;5.652;2023-03-01T13:46:24;23.1;16.8
78793;SHT31;68134;51.984;5.652;2023-03-01T13:48:56;23.1;16.5
78793;SHT31;68134;51.984;5.652;2023-03-01T13:51:28;23.1;17.0
78793;SHT31;68134;51.984;5.652;2023-03-01T13:53:59;23.1;17.3
78793;SHT31;68134;51.984;5.652;2023-03-01T13:56:36;23.2;16.7
78793;SHT31;68134;51.984;5.652;2023-03-01T13:59:16;23.2;17.2
78793;SHT31;68134;51.984;5.652;2023-03-01T14:01:54;23.2;17.4
78793;SHT31;68134;51.984;5.652;2023-03-01T14:04:26;23.2;17.1
78793;SHT31;68134;51.984;5.652;2023-03-01T14:07:11;23.1;16.8
78793;SHT31;68134;51.984;5.652;2023-03-01T14:09:44;23.1;16.7
78793;SHT31;68134;51.984;5.652;2023-03-01T14:12:29;23.0;16.5
78793;SHT31;68134;51.984;5.652;2023-03-01T14:15:05;23.0;16.6
78793;SHT31;68134;51.984;5.652;2023-03-01T14:18:04;23.0;17.0
78793;SHT31;68134;51.984;5.652;2023-03-01T14:20:42;23.0;16.7
78793;SHT31;68134;51.984;5.652;2023-03-01T14:23:17;23.0;16.6
78793;SHT31;68134;51.984;5.652;2023-03-01T14:25:52;22.9;16.5
78793;SHT31;68134;51.984;5.652;2023-03-01T14:28:25;22.9;16.8
78793;SHT31;68134;51.984;5.652;2023-03-01T14:30:57;22.8;17.1
78793;SHT31;68134;51.984;5.652;2023-03-01T14:33:29;22.8;16.6
78793;SHT31;68134;51.984;5.652;2023-03-01T14:36:02;22.8;16.9
78793;SHT31;68134;51.984;5.652;2023-03-01T14:38:34;22.8;16.7
78793;SHT31;68134;51.984;5.652;2023-03-01T14:41:09;22.8;16.1
78793;SHT31;68134;51.984;5.652;2023-03-01T14:43:43;22.8;16.9
78793;SHT31;68134;51.984;5.652;2023-03-01T14:46:20;22.8;16.4
78793;SHT31;68134;51.984;5.652;2023-03-01T14:48:54;22.8;17.0
78793;SHT31;68134;51.984;5.652;2023-03-01T14:51:25;22.7;17.1
78793;SHT31;68134;51.984;5.652;2023-03-01T14:53:55;22.5;17.7
78793;SHT31;68134;51.984;5.652;2023-03-01T14:56:25;22.4;17.2
78793;SHT31;68134;51.984;5.652;2023-03-01T14:58:58;22.4;17.1
78793;SHT31;68134;51.984;5.652;2023-03-01T15:01:28;22.3;16.9
78793;SHT31;68134;51.984;5.652;2023-03-01T15:03:59;22.1;16.9
78793;SHT31;68134;51.984;5.652;2023-03-01T15:06:30;21.8;16.9
78793;SHT31;68134;51.984;5.652;2023-03-01T15:09:02;21.6;17.1
78793;SHT31;68134;51.984;5.652;2023-03-01T15:11:33;21.4;17.8
78793;SHT31;68134;51.984;5.652;2023-03-01T15:14:40;21.2;17.4
78793;SHT31;68134;51.984;5.652;2023-03-01T15:17:29;21.0;18.5
78793;SHT31;68134;51.984;5.652;2023-03-01T15:20:00;20.9;18.2
78793;SHT31;68134;51.984;5.652;2023-03-01T15:22:31;20.8;18.1
78793;SHT31;68134;51.984;5.652;2023-03-01T15:25:01;20.7;18.1
78793;SHT31;68134;51.984;5.652;2023-03-01T15:27:31;20.6;18.2
78793;SHT31;68134;51.984;5.652;2023-03-01T15:30:03;20.6;18.2
78793;SHT31;68134;51.984;5.652;2023-03-01T15:32:35;20.5;17.6
78793;SHT31;68134;51.984;5.652;2023-03-01T15:35:40;20.3;18.2
78793;SHT31;68134;51.984;5.652;2023-03-01T15:38:31;20.1;18.4
78793;SHT31;68134;51.984;5.652;2023-03-01T15:41:03;19.9;18.6
78793;SHT31;68134;51.984;5.652;2023-03-01T15:43:41;19.8;18.8
78793;SHT31;68134;51.984;5.652;2023-03-01T15:46:20;19.6;18.7
78793;SHT31;68134;51.984;5.652;2023-03-01T15:48:55;19.5;18.7
78793;SHT31;68134;51.984;5.652;2023-03-01T15:51:31;19.3;18.8
78793;SHT31;68134;51.984;5.652;2023-03-01T15:54:05;19.1;18.9
78793;SHT31;68134;51.984;5.652;2023-03-01T15:56:35;18.8;18.8
78793;SHT31;68134;51.984;5.652;2023-03-01T15:59:05;18.5;19.8
78793;SHT31;68134;51.984;5.652;2023-03-01T16:01:34;18.1;20.0
78793;SHT31;68134;51.984;5.652;2023-03-01T16:04:06;17.7;20.3
78793;SHT31;68134;51.984;5.652;2023-03-01T16:06:36;17.2;20.5
78793;SHT31;68134;51.984;5.652;2023-03-01T16:09:06;16.7;21.1
78793;SHT31;68134;51.984;5.652;2023-03-01T16:11:36;16.2;21.8
78793;SHT31;68134;51.984;5.652;2023-03-01T16:14:08;15.9;22.6
78793;SHT31;68134;51.984;5.652;2023-03-01T16:16:38;15.7;22.1
78793;SHT31;68134;51.984;5.652;2023-03-01T16:19:08;15.5;22.5
78793;SHT31;68134;51.984;5.652;2023-03-01T16:21:39;15.3;22.5
78793;SHT31;68134;51.984;5.652;2023-03-01T16:24:10;15.1;22.9
78793;SHT31;68134;51.984;5.652;2023-03-01T16:26:39;14.9;23.5
78793;SHT31;68134;51.984;5.652;2023-03-01T16:29:09;14.8;24.0
78793;SHT31;68134;51.984;5.652;2023-03-01T16:31:39;14.7;23.6
78793;SHT31;68134;51.984;5.652;2023-03-01T16:34:09;14.6;24.1
78793;SHT31;68134;51.984;5.652;2023-03-01T16:36:38;14.4;25.0
78793;SHT31;68134;51.984;5.652;2023-03-01T16:39:09;14.4;25.1
78793;SHT31;68134;51.984;5.652;2023-03-01T16:41:38;14.3;25.5
78793;SHT31;68134;51.984;5.652;2023-03-01T16:44:08;14.2;25.6
78793;SHT31;68134;51.984;5.652;2023-03-01T16:46:38;14.2;25.5
78793;SHT31;68134;51.984;5.652;2023-03-01T16:49:08;14.1;25.5
78793;SHT31;68134;51.984;5.652;2023-03-01T16:51:39;14.1;26.4
78793;SHT31;68134;51.984;5.652;2023-03-01T16:54:09;14.0;26.4